Time;durP1;ratioP1;P1;durP2;ratioP2;P2;SDS_P1;SDS_P2;PMS_P1;PMS_P2;Temp;Humidity;BMP_temperature;BMP_pressure;BME280_temperature;BME280_humidity;BME280_pressure;Samples;Min_cycle;Max_cycle;Signal;HPM_P1;HPM_P2
2022/02/15 00:01:57;;;;;;;45.13;29.73;;;;;;;3.40;87.96;95325.25;5053026;28;20491;-82
2022/02/15 00:04:24;;;;;;;47.43;29.50;;;;;;;3.45;88.39;95323.25;5034154;28;20439;-83
2022/02/15 00:06:52;;;;;;;49.60;29.97;;;;;;;3.50;87.59;95338.63;5052775;28;20813;-83
2022/02/15 00:09:19;;;;;;;46.97;29.73;;;;;;;3.50;87.27;95326.50;5053112;28;20442;-82
2022/02/15 00:11:46;;;;;;;47.90;30.60;;;;;;;3.55;87.71;95336.63;5053033;28;21011;-82
2022/02/15 00:14:14;;;;;;;55.30;30.97;;;;;;;3.48;88.23;95322.28;5053146;28;20949;-82
2022/02/15 00:16:41;;;;;;;53.37;32.10;;;;;;;3.59;88.76;95335.56;5052949;28;20448;-82
2022/02/15 00:19:08;;;;;;;53.90;32.00;;;;;;;3.61;87.65;95329.38;5053014;28;20450;-82
2022/02/15 00:21:35;;;;;;;62.27;33.40;;;;;;;3.62;87.50;95333.63;5017821;28;20477;-82
2022/02/15 00:24:04;;;;;;;44.97;29.40;;;;;;;3.50;86.81;95316.09;5052639;28;20459;-81
2022/02/15 00:26:31;;;;;;;48.50;29.83;;;;;;;3.59;85.31;95322.59;5052824;28;20446;-83
2022/02/15 00:28:58;;;;;;;37.80;25.67;;;;;;;3.59;84.86;95323.41;5052703;28;20456;-81
2022/02/15 00:31:25;;;;;;;45.33;25.93;;;;;;;3.59;83.65;95318.22;5052956;28;20432;-82
2022/02/15 00:33:51;;;;;;;46.53;25.33;;;;;;;3.59;82.83;95330.38;5052365;28;21024;-83
2022/02/15 00:36:18;;;;;;;42.03;24.23;;;;;;;3.57;82.53;95321.81;5052709;28;20442;-82
2022/02/15 00:38:45;;;;;;;44.87;28.50;;;;;;;3.55;83.41;95315.88;5052578;28;20524;-82
2022/02/15 00:41:14;;;;;;;41.33;26.43;;;;;;;3.54;83.96;95319.38;5052394;28;20487;-82
2022/02/15 00:43:41;;;;;;;44.83;25.67;;;;;;;3.57;84.08;95319.22;5052746;28;20946;-81
2022/02/15 00:46:07;;;;;;;35.43;22.53;;;;;;;3.53;84.46;95326.34;5052336;28;20447;-81
2022/02/15 00:48:34;;;;;;;34.10;21.97;;;;;;;3.56;84.27;95322.75;5052147;28;20448;-83
2022/02/15 00:51:01;;;;;;;34.07;21.53;;;;;;;3.56;84.94;95330.53;5052219;28;20968;-82
2022/02/15 00:53:28;;;;;;;32.83;20.50;;;;;;;3.54;85.31;95322.81;5052356;28;20450;-80
2022/02/15 00:55:55;;;;;;;29.80;19.73;;;;;;;3.55;86.37;95316.72;5052403;28;20805;-82
2022/02/15 00:58:23;;;;;;;31.20;20.50;;;;;;;3.52;86.23;95314.28;5017530;28;20817;-81
2022/02/15 01:00:50;;;;;;;31.07;20.67;;;;;;;3.53;87.30;95299.53;5033351;28;20434;-81
2022/02/15 01:03:17;;;;;;;29.70;20.30;;;;;;;3.56;87.67;95309.78;5051970;28;20451;-82
2022/02/15 01:05:44;;;;;;;29.20;19.47;;;;;;;3.55;87.06;95303.75;5052195;28;20462;-83
2022/02/15 01:08:12;;;;;;;30.07;20.20;;;;;;;3.58;86.92;95298.38;5056747;28;20633;-82
2022/02/15 01:10:39;;;;;;;32.60;20.53;;;;;;;3.59;87.06;95289.69;5056595;28;20458;-82
2022/02/15 01:13:06;;;;;;;26.97;19.17;;;;;;;3.58;86.18;95277.63;5056249;28;20454;-82
2022/02/15 01:15:35;;;;;;;32.63;21.00;;;;;;;3.64;86.52;95282.50;5055899;28;20956;-84
2022/02/15 01:18:02;;;;;;;30.53;20.43;;;;;;;3.62;86.34;95293.88;5056608;28;20801;-82
2022/02/15 01:20:28;;;;;;;26.53;19.60;;;;;;;3.64;86.09;95286.84;5056286;28;20446;-82
2022/02/15 01:22:56;;;;;;;32.67;19.93;;;;;;;3.60;86.16;95278.41;5020903;28;20999;-82
2022/02/15 01:25:23;;;;;;;28.77;18.80;;;;;;;3.60;85.81;95283.59;5056441;28;20457;-80
2022/02/15 01:27:50;;;;;;;31.00;19.13;;;;;;;3.61;86.06;95279.22;5056083;28;20448;-82
2022/02/15 01:30:17;;;;;;;31.43;19.80;;;;;;;3.59;85.46;95274.13;5056567;28;20459;-83
2022/02/15 01:32:47;;;;;;;27.67;17.93;;;;;;;3.49;85.56;95257.34;5056034;28;20527;-82
2022/02/15 01:35:14;;;;;;;33.47;19.47;;;;;;;3.55;85.61;95263.97;5056342;28;20448;-81
2022/02/15 01:37:41;;;;;;;33.67;19.83;;;;;;;3.54;85.31;95265.75;5055882;28;20451;-83
2022/02/15 01:40:10;;;;;;;26.30;17.87;;;;;;;3.50;85.86;95261.63;5055915;28;20513;-82
2022/02/15 01:42:37;;;;;;;32.13;20.93;;;;;;;3.47;85.45;95261.78;5055699;28;21025;-82
2022/02/15 01:45:05;;;;;;;27.93;19.07;;;;;;;3.18;85.86;95252.03;5055727;28;20539;-82
2022/02/15 01:47:33;;;;;;;29.73;19.03;;;;;;;3.17;86.25;95250.34;5055653;28;20442;-82
2022/02/15 01:50:01;;;;;;;27.63;19.90;;;;;;;3.18;85.84;95262.38;5055503;28;20442;-83
2022/02/15 01:52:28;;;;;;;29.67;19.10;;;;;;;3.04;85.82;95269.13;5055707;28;20442;-81
2022/02/15 01:54:57;;;;;;;32.40;19.63;;;;;;;3.00;86.82;95265.00;5055412;28;20442;-82
2022/02/15 01:57:25;;;;;;;27.77;18.80;;;;;;;2.93;87.22;95266.22;5055516;28;20441;-82
2022/02/15 01:59:55;;;;;;;27.33;20.00;;;;;;;2.97;87.42;95267.75;5055778;28;20451;-82
2022/02/15 02:02:22;;;;;;;28.23;19.17;;;;;;;2.97;88.12;95265.16;5055310;28;20542;-82
2022/02/15 02:07:35;;;;;;;61.07;26.00;;;;;;;2.95;88.37;95256.63;5055450;28;20847;-81
2022/02/15 02:10:02;;;;;;;29.90;19.50;;;;;;;2.96;89.06;95250.53;5055101;28;20460;-83
2022/02/15 02:12:29;;;;;;;34.57;18.93;;;;;;;2.95;88.98;95253.19;5055063;28;20525;-83
2022/02/15 02:15:00;;;;;;;31.13;19.70;;;;;;;2.85;89.13;95255.38;5055442;28;20448;-82
2022/02/15 02:17:27;;;;;;;28.20;19.00;;;;;;;2.84;88.74;95253.69;5055028;28;20443;-82
2022/02/15 02:19:55;;;;;;;30.00;19.20;;;;;;;2.74;89.15;95252.47;5020162;28;20454;-83
2022/02/15 02:22:25;;;;;;;30.50;20.70;;;;;;;2.80;89.33;95262.53;5054917;28;20996;-82
2022/02/15 02:24:52;;;;;;;38.33;21.17;;;;;;;2.62;89.28;95258.25;5036100;28;20450;-82
2022/02/15 02:27:23;;;;;;;35.30;19.77;;;;;;;2.53;89.66;95264.69;5055170;28;20273;-82
2022/02/15 02:29:51;;;;;;;33.80;18.67;;;;;;;2.55;89.66;95269.81;5055093;28;20443;-82
2022/02/15 02:32:19;;;;;;;24.33;18.27;;;;;;;2.34;91.02;95249.22;5055133;28;20452;-83
2022/02/15 02:34:46;;;;;;;28.57;18.57;;;;;;;2.45;91.27;95262.47;5054553;28;20859;-82
2022/02/15 02:37:13;;;;;;;32.50;21.60;;;;;;;2.43;91.29;95264.31;5036179;28;20434;-82
2022/02/15 02:39:43;;;;;;;33.87;20.70;;;;;;;2.53;91.42;95269.03;5055017;28;20568;-82
2022/02/15 02:42:10;;;;;;;31.00;19.90;;;;;;;2.58;90.90;95272.25;5054716;28;20490;-81
2022/02/15 02:44:38;;;;;;;37.10;20.47;;;;;;;2.52;91.31;95282.91;5054678;28;20465;-83
2022/02/15 02:47:05;;;;;;;34.43;22.10;;;;;;;2.67;90.68;95289.97;5054990;28;20454;-83
2022/02/15 02:49:33;;;;;;;29.20;20.93;;;;;;;2.71;90.47;95283.72;5054678;28;20454;-82
2022/02/15 02:52:00;;;;;;;35.93;19.90;;;;;;;2.78;89.19;95291.13;5054779;28;20501;-82
2022/02/15 02:54:27;;;;;;;30.50;18.20;;;;;;;2.78;88.08;95290.28;5019514;28;20453;-82
2022/02/15 02:56:56;;;;;;;24.27;19.03;;;;;;;2.85;88.86;95296.84;5054396;28;20448;-82
2022/02/15 02:59:23;;;;;;;28.77;19.63;;;;;;;2.88;88.22;95295.84;5054685;28;20441;-83
2022/02/15 03:01:50;;;;;;;33.30;21.63;;;;;;;2.89;87.75;95308.75;5054237;28;20485;-80
2022/02/15 03:04:17;;;;;;;36.77;23.63;;;;;;;2.89;87.45;95310.47;5054603;28;20446;-82
2022/02/15 03:06:44;;;;;;;34.33;21.87;;;;;;;2.77;87.56;95306.75;5054311;28;20936;-82
2022/02/15 03:09:11;;;;;;;31.63;21.20;;;;;;;2.78;87.45;95316.19;5054216;28;20449;-81
2022/02/15 03:11:38;;;;;;;24.63;19.20;;;;;;;2.71;87.93;95315.66;5054236;28;20445;-82
2022/02/15 03:14:07;;;;;;;35.90;23.10;;;;;;;2.67;86.85;95315.88;5054476;28;20793;-83
2022/02/15 03:16:34;;;;;;;35.00;22.50;;;;;;;2.70;86.82;95319.16;5053867;28;20448;-83
2022/02/15 03:19:01;;;;;;;34.33;22.37;;;;;;;2.73;87.00;95325.94;5054088;28;20448;-83
2022/02/15 03:21:28;;;;;;;36.60;22.40;;;;;;;2.75;87.29;95322.34;5053906;28;20446;-82
2022/02/15 03:23:55;;;;;;;52.73;25.70;;;;;;;2.77;87.11;95317.09;5053996;28;20446;-82
2022/02/15 03:26:22;;;;;;;43.90;24.87;;;;;;;2.82;86.52;95322.91;5053899;28;20446;-83
2022/02/15 03:28:49;;;;;;;44.97;25.30;;;;;;;2.71;87.15;95314.81;5053409;28;21023;-82
2022/02/15 03:31:18;;;;;;;38.20;21.90;;;;;;;2.81;87.25;95323.81;5053664;28;20533;-82
2022/02/15 03:33:45;;;;;;;40.23;22.97;;;;;;;2.84;88.01;95322.81;5053699;28;20445;-81
2022/02/15 03:36:12;;;;;;;43.73;24.07;;;;;;;2.92;88.67;95339.72;5053878;28;20442;-81
2022/02/15 03:38:39;;;;;;;40.97;25.93;;;;;;;2.97;89.56;95332.53;5053597;28;20962;-80
2022/02/15 03:43:51;;;;;;;44.97;27.97;;;;;;;3.07;91.08;95319.97;5053637;28;20468;-82
2022/02/15 03:46:19;;;;;;;48.30;29.70;;;;;;;3.13;91.69;95334.38;5053955;28;20457;-82
2022/02/15 03:48:46;;;;;;;44.97;24.53;;;;;;;3.23;90.88;95327.84;5053497;28;20796;-82
2022/02/15 03:51:13;;;;;;;45.47;27.50;;;;;;;3.28;90.56;95326.72;5018730;28;20457;-82
2022/02/15 03:53:40;;;;;;;46.23;28.50;;;;;;;3.35;91.33;95322.06;5053451;28;20431;-82
2022/02/15 03:56:09;;;;;;;55.83;28.67;;;;;;;3.36;90.91;95324.56;5052988;28;20442;-82
2022/02/15 03:58:36;;;;;;;54.07;30.20;;;;;;;3.46;90.83;95326.69;5053836;28;20781;-82
2022/02/15 04:01:03;;;;;;;51.97;29.17;;;;;;;3.52;90.83;95335.03;5053165;28;20459;-82
2022/02/15 04:03:31;;;;;;;58.50;29.97;;;;;;;3.55;90.27;95331.44;5053256;28;20497;-82
2022/02/15 04:05:59;;;;;;;46.17;26.53;;;;;;;3.49;90.53;95326.56;5053453;28;20785;-82
2022/02/15 04:08:26;;;;;;;41.30;23.90;;;;;;;3.56;89.31;95333.13;5053104;28;20447;-81
2022/02/15 04:10:53;;;;;;;37.70;22.90;;;;;;;3.52;88.36;95331.59;5053307;28;20791;-83
2022/02/15 04:13:20;;;;;;;33.53;23.40;;;;;;;3.47;88.64;95326.66;5053470;28;20451;-81
2022/02/15 04:15:47;;;;;;;32.10;21.03;;;;;;;3.46;88.14;95332.72;5052886;28;20560;-82
2022/02/15 04:18:15;;;;;;;35.53;21.70;;;;;;;3.46;87.91;95327.53;5053117;28;20442;-83
2022/02/15 04:20:43;;;;;;;35.53;22.37;;;;;;;3.48;86.77;95323.13;5052941;28;20445;-84
2022/02/15 04:23:10;;;;;;;31.97;20.17;;;;;;;3.45;86.74;95318.06;5052865;28;20983;-81
2022/02/15 04:25:37;;;;;;;37.43;24.23;;;;;;;3.44;87.53;95319.00;5053125;28;20455;-82
2022/02/15 04:28:04;;;;;;;35.87;20.63;;;;;;;3.38;87.77;95316.72;5052660;28;20921;-82
2022/02/15 04:30:31;;;;;;;31.93;21.67;;;;;;;3.31;87.39;95318.78;5052891;28;20446;-81
2022/02/15 04:32:58;;;;;;;35.77;22.70;;;;;;;3.27;86.51;95319.00;5052590;28;20458;-81
2022/02/15 04:35:25;;;;;;;32.00;22.13;;;;;;;3.20;87.03;95322.81;5052434;28;20462;-82
2022/02/15 04:37:54;;;;;;;29.23;21.40;;;;;;;3.17;86.93;95320.34;5052377;28;20461;-81
2022/02/15 04:40:21;;;;;;;29.73;19.60;;;;;;;3.16;87.41;95318.69;5052448;28;20505;-82
2022/02/15 04:42:49;;;;;;;30.37;18.80;;;;;;;3.18;86.72;95322.91;5052487;28;20577;-82
2022/02/15 04:45:16;;;;;;;31.60;18.50;;;;;;;3.19;86.83;95321.97;5052623;28;20450;-82
2022/02/15 04:47:43;;;;;;;30.70;19.43;;;;;;;3.13;87.10;95331.78;5052642;28;20459;-82
2022/02/15 04:50:11;;;;;;;31.47;22.13;;;;;;;2.91;88.21;95332.84;5052549;28;20450;-82
2022/02/15 04:52:38;;;;;;;35.73;19.47;;;;;;;2.70;88.06;95321.75;5052678;28;20802;-82
2022/02/15 04:55:07;;;;;;;35.30;22.47;;;;;;;2.40;89.24;95336.13;5052828;28;20458;-82
2022/02/15 04:57:34;;;;;;;44.70;26.10;;;;;;;2.20;91.37;95331.84;5052579;28;20824;-82
2022/02/15 05:00:01;;;;;;;66.47;34.30;;;;;;;2.25;91.21;95336.81;5052390;28;20446;-83
2022/02/15 05:02:28;;;;;;;75.22;37.78;;;;;;;2.12;92.23;95339.13;5052215;28;20491;-82
2022/02/15 05:04:55;;;;;;;82.80;41.03;;;;;;;1.81;94.38;95343.06;5052325;28;20210;-82
2022/02/15 05:07:23;;;;;;;83.82;40.20;;;;;;;1.51;97.09;95334.88;5052259;28;20456;-82
2022/02/15 05:09:51;;;;;;;70.68;36.28;;;;;;;1.23;99.72;95344.69;5052494;28;20218;-82
2022/02/15 05:12:19;;;;;;;90.87;42.77;;;;;;;1.45;98.84;95340.31;5052348;28;20557;-83
2022/02/15 05:14:46;;;;;;;88.18;39.28;;;;;;;1.65;99.25;95348.94;5033618;28;20442;-82
2022/02/15 05:17:14;;;;;;;80.60;40.97;;;;;;;1.83;98.91;95350.75;5051817;28;20229;-82
2022/02/15 05:19:41;;;;;;;82.85;41.13;;;;;;;1.89;98.25;95339.28;5053089;28;20249;-83
2022/02/15 05:22:08;;;;;;;84.50;39.30;;;;;;;1.99;98.78;95331.03;5053176;28;20183;-83
2022/02/15 05:24:35;;;;;;;77.17;39.00;;;;;;;2.11;98.23;95340.03;5053356;28;20514;-82
2022/02/15 05:33:49;;;;;;;97.43;47.80;;;;;;;2.56;97.46;95341.41;5050656;28;20419;-82
2022/02/15 05:36:16;;;;;;;101.90;43.67;;;;;;;2.66;96.29;95353.06;5018858;28;20504;-83
2022/02/15 05:38:43;;;;;;;125.70;46.50;;;;;;;2.74;95.07;95350.94;5052935;28;21002;-83
2022/02/15 05:41:10;;;;;;;111.23;46.30;;;;;;;2.78;94.89;95348.13;5052910;28;20481;-82
2022/02/15 05:43:37;;;;;;;134.17;50.07;;;;;;;2.66;94.46;95347.88;5053089;28;20479;-83
2022/02/15 05:46:04;;;;;;;131.77;50.40;;;;;;;2.58;94.27;95365.50;5052992;28;20954;-82
2022/02/15 05:48:31;;;;;;;121.23;44.90;;;;;;;2.34;94.46;95357.97;5052881;28;20434;-83
2022/02/15 05:51:00;;;;;;;101.67;42.30;;;;;;;2.25;95.14;95362.69;5053623;28;20431;-83
2022/02/15 05:53:30;;;;;;;111.15;43.22;;;;;;;2.23;96.35;95377.47;5056008;28;20430;-83
2022/02/15 05:56:01;;;;;;;102.30;40.10;;;;;;;2.25;97.00;95379.06;5056937;28;20203;-83
2022/02/15 05:58:29;;;;;;;83.55;44.67;;;;;;;2.31;97.23;95378.78;5056957;28;20196;-84
2022/02/15 06:00:57;;;;;;;126.85;53.70;;;;;;;2.32;97.43;95390.84;5057552;28;20696;-85
2022/02/15 06:13:12;;;;;;;120.82;52.20;;;;;;;2.34;97.92;95394.22;5056568;28;20274;-86
2022/02/15 06:15:39;;;;;;;109.50;52.07;;;;;;;2.44;98.22;95400.66;5055026;28;20195;-86
2022/02/15 06:18:06;;;;;;;131.43;56.10;;;;;;;2.57;98.29;95389.72;5056524;28;20434;-84
2022/02/15 06:20:33;;;;;;;121.63;56.37;;;;;;;2.68;97.46;95398.69;5038064;28;20434;-84
2022/02/15 06:23:00;;;;;;;117.37;58.40;;;;;;;2.74;98.06;95397.56;5056255;28;20477;-84
2022/02/15 06:28:50;;;;;;;94.00;48.78;;;;;;;2.95;96.42;95401.78;5055409;28;20483;-83
2022/02/15 06:31:17;;;;;;;106.93;49.57;;;;;;;3.05;95.56;95413.38;5056066;28;20192;-90
2022/02/15 06:33:44;;;;;;;100.13;47.43;;;;;;;3.17;94.83;95400.72;5056166;28;20449;-84
2022/02/15 06:36:11;;;;;;;98.80;44.57;;;;;;;3.26;94.34;95405.50;5056662;28;20443;-84
2022/02/15 06:38:38;;;;;;;100.53;47.33;;;;;;;3.31;93.31;95408.72;5057194;28;20450;-86
2022/02/15 06:41:05;;;;;;;81.10;44.37;;;;;;;3.30;92.78;95402.69;5057117;28;20487;-84
2022/02/15 06:43:32;;;;;;;87.60;46.40;;;;;;;3.38;92.35;95404.91;5057366;28;20481;-85
2022/02/15 06:46:01;;;;;;;84.47;49.80;;;;;;;3.37;92.71;95411.00;5056639;28;20453;-84
2022/02/15 06:48:28;;;;;;;82.07;49.07;;;;;;;3.50;92.28;95404.31;5057002;28;20803;-85
2022/02/15 06:50:55;;;;;;;90.47;50.00;;;;;;;3.66;93.23;95414.75;5056994;28;20928;-83
2022/02/15 06:53:22;;;;;;;109.33;58.17;;;;;;;3.89;94.35;95414.47;5056913;28;20438;-86
2022/02/15 06:55:49;;;;;;;100.37;54.43;;;;;;;3.97;92.33;95416.66;5056659;28;20454;-85
2022/02/15 06:58:16;;;;;;;106.07;56.90;;;;;;;4.11;91.32;95416.81;5056937;28;20457;-85
2022/02/15 07:00:43;;;;;;;89.50;51.00;;;;;;;4.25;90.60;95413.50;5054665;28;20432;-85
2022/02/15 07:03:11;;;;;;;84.60;50.30;;;;;;;4.32;89.10;95420.03;5056408;28;20503;-86
2022/02/15 07:05:38;;;;;;;76.30;44.90;;;;;;;4.41;89.00;95413.56;5062224;28;20487;-86
2022/02/15 07:08:06;;;;;;;72.83;43.17;;;;;;;4.61;88.24;95418.53;5069504;28;20479;-85
2022/02/15 07:10:33;;;;;;;75.77;45.20;;;;;;;4.77;87.75;95431.56;5070986;28;20461;-85
2022/02/15 07:12:59;;;;;;;73.60;45.67;;;;;;;4.80;86.81;95428.78;5067299;28;20447;-85
2022/02/15 07:15:26;;;;;;;70.40;41.10;;;;;;;4.86;86.61;95418.91;5072802;28;20512;-84
2022/02/15 07:17:53;;;;;;;74.73;38.90;;;;;;;4.83;86.92;95421.66;5072933;28;20481;-85
2022/02/15 07:20:22;;;;;;;69.57;39.33;;;;;;;4.98;85.76;95426.06;5070645;28;20455;-85
2022/02/15 07:22:49;;;;;;;72.87;42.90;;;;;;;5.28;86.41;95427.88;5067254;28;21380;-86
2022/02/15 07:25:16;;;;;;;78.80;45.87;;;;;;;5.52;84.22;95428.28;5069254;28;20500;-85
2022/02/15 07:27:43;;;;;;;68.67;42.40;;;;;;;5.76;82.81;95423.44;5066262;28;20445;-86
2022/02/15 07:30:10;;;;;;;67.10;41.20;;;;;;;6.10;81.99;95427.56;5066855;28;20452;-85
2022/02/15 07:32:37;;;;;;;67.73;44.07;;;;;;;6.16;80.31;95429.81;5067730;28;20471;-86
2022/02/15 07:35:05;;;;;;;51.87;35.70;;;;;;;6.25;80.16;95423.22;5068415;28;20538;-86
2022/02/15 07:37:33;;;;;;;53.53;35.60;;;;;;;6.24;80.17;95409.34;5033397;28;20441;-86
2022/02/15 07:40:00;;;;;;;60.47;36.47;;;;;;;6.32;79.94;95421.91;5067981;28;20481;-86
2022/02/15 07:42:27;;;;;;;56.67;38.07;;;;;;;6.38;80.23;95421.56;5068465;28;20509;-85
2022/02/15 07:44:54;;;;;;;60.20;37.30;;;;;;;6.52;80.07;95424.16;5067631;28;20491;-86
2022/02/15 07:47:21;;;;;;;63.77;36.57;;;;;;;6.52;79.42;95432.00;5058216;28;20892;-86
2022/02/15 07:49:48;;;;;;;56.23;33.40;;;;;;;6.60;78.92;95432.34;5055318;28;20449;-87
2022/02/15 07:52:15;;;;;;;60.00;35.50;;;;;;;6.60;79.43;95421.09;5055518;28;20453;-86
2022/02/15 07:54:44;;;;;;;51.33;34.17;;;;;;;6.72;78.57;95418.59;5054847;28;20450;-86
2022/02/15 07:57:11;;;;;;;53.90;34.23;;;;;;;6.81;79.25;95420.63;5054772;28;20532;-86
2022/02/15 07:59:38;;;;;;;60.13;34.60;;;;;;;6.83;78.97;95408.31;5055527;28;20452;-86
2022/02/15 08:02:05;;;;;;;54.70;31.80;;;;;;;6.76;78.08;95411.41;5054916;28;20493;-86
2022/02/15 08:04:32;;;;;;;53.40;32.57;;;;;;;6.76;78.80;95416.63;5054828;28;20488;-86
2022/02/15 08:07:03;;;;;;;61.57;36.37;;;;;;;6.80;78.32;95418.97;5056376;28;20456;-86
2022/02/15 08:09:30;;;;;;;43.90;31.60;;;;;;;6.87;78.92;95415.97;5055302;28;20450;-85
2022/02/15 08:11:59;;;;;;;57.43;33.67;;;;;;;6.89;78.01;95425.38;5055262;28;20457;-86
2022/02/15 08:14:26;;;;;;;47.57;32.73;;;;;;;6.68;78.14;95411.06;5054673;28;20476;-85
2022/02/15 08:16:54;;;;;;;55.57;34.43;;;;;;;6.42;79.40;95423.06;5054311;28;20505;-85
2022/02/15 08:19:26;;;;;;;58.10;36.10;;;;;;;6.46;80.14;95425.38;5054574;28;20452;-86
2022/02/15 08:21:54;;;;;;;63.13;38.23;;;;;;;6.40;80.84;95420.53;5054313;28;20441;-85
2022/02/15 08:24:22;;;;;;;66.23;35.97;;;;;;;6.47;80.77;95429.66;5055404;28;20469;-86
2022/02/15 08:26:49;;;;;;;59.00;35.80;;;;;;;6.50;80.96;95426.03;5055001;28;20446;-86
2022/02/15 08:29:17;;;;;;;57.20;33.90;;;;;;;6.51;80.43;95425.94;5055098;28;20815;-86
2022/02/15 08:31:44;;;;;;;63.57;36.50;;;;;;;6.43;80.88;95420.34;5054824;28;20487;-85
2022/02/15 08:37:33;;;;;;;72.23;43.50;;;;;;;6.18;82.01;95417.53;5053635;28;20993;-86
2022/02/15 08:40:01;;;;;;;73.53;42.67;;;;;;;6.00;82.83;95413.38;5054390;28;20492;-85
2022/02/15 08:42:28;;;;;;;86.53;42.53;;;;;;;5.49;85.46;95416.28;5054154;28;20438;-86
2022/02/15 08:44:56;;;;;;;77.40;44.67;;;;;;;5.56;86.40;95402.00;5054910;28;20481;-86
2022/02/15 08:47:23;;;;;;;74.93;44.30;;;;;;;5.59;86.20;95400.97;5054532;28;20453;-84
2022/02/15 08:49:52;;;;;;;87.93;44.57;;;;;;;5.85;85.57;95397.72;5053775;28;20837;-83
2022/02/15 08:52:19;;;;;;;66.60;40.07;;;;;;;5.89;84.55;95412.25;5053446;28;20841;-86
2022/02/15 08:54:46;;;;;;;81.90;42.90;;;;;;;6.05;84.04;95400.94;5053485;28;20449;-85
2022/02/15 08:57:13;;;;;;;62.70;40.27;;;;;;;6.17;83.27;95393.25;5054463;28;20437;-84
2022/02/15 08:59:40;;;;;;;82.00;43.20;;;;;;;6.21;82.56;95402.56;5054135;28;20492;-85
2022/02/15 09:02:08;;;;;;;74.80;42.67;;;;;;;6.53;82.90;95400.63;5053800;28;20463;-85
2022/02/15 09:04:37;;;;;;;55.83;34.17;;;;;;;6.67;80.73;95406.78;5053575;28;20910;-85
2022/02/15 09:07:06;;;;;;;56.70;34.83;;;;;;;6.95;78.76;95411.13;5053799;28;20437;-84
2022/02/15 09:09:33;;;;;;;56.10;32.70;;;;;;;7.14;78.39;95399.41;5054091;28;20519;-85
2022/02/15 09:12:01;;;;;;;56.53;34.57;;;;;;;7.44;77.34;95401.84;5056421;28;20457;-86
2022/02/15 09:14:29;;;;;;;51.23;33.03;;;;;;;7.77;76.15;95395.38;5054763;28;20905;-85
2022/02/15 09:16:57;;;;;;;54.33;32.97;;;;;;;8.02;75.41;95395.44;5057906;28;20446;-86
2022/02/15 09:19:25;;;;;;;62.90;32.17;;;;;;;8.04;73.95;95406.59;5055288;28;20464;-85
2022/02/15 09:21:52;;;;;;;50.10;32.30;;;;;;;8.13;73.75;95401.72;5053916;28;20462;-85
2022/02/15 09:24:19;;;;;;;51.07;34.80;;;;;;;8.10;73.94;95408.00;5053564;28;20479;-86
2022/02/15 09:26:46;;;;;;;59.77;35.83;;;;;;;8.15;74.30;95405.06;5055083;28;20545;-86
2022/02/15 09:29:13;;;;;;;50.20;30.57;;;;;;;8.15;73.66;95398.06;5058609;28;20450;-85
2022/02/15 09:31:40;;;;;;;48.93;30.90;;;;;;;8.35;73.78;95391.50;5058153;28;20517;-85
2022/02/15 09:34:08;;;;;;;49.43;31.80;;;;;;;8.46;72.48;95389.03;5058234;28;20500;-85
2022/02/15 09:36:37;;;;;;;48.17;30.90;;;;;;;8.57;72.16;95385.66;5058960;28;20444;-85
2022/02/15 09:39:05;;;;;;;50.53;30.73;;;;;;;8.68;71.90;95388.38;5057242;28;20456;-86
2022/02/15 09:41:33;;;;;;;44.70;28.73;;;;;;;8.79;70.19;95383.22;5057672;28;20528;-85
2022/02/15 09:44:00;;;;;;;48.00;28.10;;;;;;;8.84;70.38;95373.28;5057280;28;20523;-85
2022/02/15 09:46:28;;;;;;;46.57;27.50;;;;;;;8.97;69.84;95375.88;5057861;28;20810;-85
2022/02/15 09:48:55;;;;;;;41.33;26.73;;;;;;;9.01;69.36;95369.47;5057657;28;20450;-86
2022/02/15 09:51:23;;;;;;;29.60;23.03;;;;;;;8.96;68.38;95366.31;5058416;28;20454;-86
2022/02/15 09:53:53;;;;;;;38.30;24.50;;;;;;;8.87;68.19;95366.97;5062970;28;20450;-85
2022/02/15 09:56:20;;;;;;;36.30;23.20;;;;;;;8.87;68.36;95361.75;5060572;28;20460;-86
2022/02/15 09:58:48;;;;;;;38.57;23.80;;;;;;;8.74;68.42;95348.72;5057593;28;20434;-85
2022/02/15 10:01:17;;;;;;;40.13;25.10;;;;;;;8.86;68.33;95349.59;5060755;28;20431;-85
2022/02/15 10:03:49;;;;;;;39.80;26.97;;;;;;;8.84;68.65;95346.28;5062089;28;20453;-85
2022/02/15 10:06:16;;;;;;;47.57;28.33;;;;;;;8.76;69.19;95338.97;5060605;28;20445;-85
2022/02/15 10:08:43;;;;;;;47.03;24.97;;;;;;;8.79;68.56;95348.38;5057016;28;20453;-85
2022/02/15 10:11:13;;;;;;;46.90;28.80;;;;;;;8.84;67.91;95330.56;5056434;28;20449;-83
2022/02/15 10:13:44;;;;;;;44.27;26.97;;;;;;;8.82;68.80;95327.22;5021779;28;20528;-85
2022/02/15 10:16:12;;;;;;;51.57;28.80;;;;;;;8.69;68.44;95311.56;5056426;28;20453;-85
2022/02/15 10:18:41;;;;;;;45.00;27.80;;;;;;;8.84;69.41;95317.47;5056856;28;20438;-83
2022/02/15 10:21:10;;;;;;;49.77;30.33;;;;;;;8.96;69.60;95311.38;5056450;28;20480;-85
2022/02/15 10:23:37;;;;;;;56.33;32.17;;;;;;;8.99;70.73;95311.16;5056330;28;20440;-85
2022/02/15 10:26:08;;;;;;;57.23;33.80;;;;;;;9.07;70.64;95311.44;5057519;28;20282;-85
2022/02/15 10:28:38;;;;;;;44.03;27.50;;;;;;;9.07;69.78;95306.22;5056435;28;20441;-84
2022/02/15 10:31:06;;;;;;;53.50;29.87;;;;;;;9.13;70.42;95307.53;5056850;28;20540;-83
2022/02/15 10:33:34;;;;;;;48.60;29.03;;;;;;;9.03;70.04;95299.53;5057294;28;20441;-85
2022/02/15 10:36:03;;;;;;;44.63;29.13;;;;;;;9.15;69.36;95297.78;5055196;28;20496;-86
2022/02/15 10:38:33;;;;;;;50.47;30.57;;;;;;;9.26;69.66;95305.72;5054619;28;20461;-87
2022/02/15 10:41:02;;;;;;;30.20;20.60;;;;;;;9.19;66.08;95299.25;5055583;28;20828;-85
2022/02/15 10:43:30;;;;;;;36.40;22.00;;;;;;;9.15;66.93;95290.78;5056485;28;20448;-85
2022/02/15 10:46:09;;;;;;;31.13;21.47;;;;;;;9.15;66.73;95298.63;5056666;28;20478;-87
2022/02/15 10:48:36;;;;;;;45.20;22.00;;;;;;;8.76;67.92;95289.25;5056364;28;20450;-88
2022/02/15 10:51:05;;;;;;;33.40;21.87;;;;;;;8.43;68.30;95266.31;5056346;28;20536;-85
2022/02/15 10:53:32;;;;;;;34.97;22.90;;;;;;;8.77;68.08;95264.75;5055852;28;20434;-86
2022/02/15 10:55:59;;;;;;;39.03;24.80;;;;;;;8.89;68.63;95266.47;5056414;28;20453;-85
2022/02/15 10:58:27;;;;;;;45.33;26.90;;;;;;;9.03;68.51;95262.88;5055354;28;20441;-85
2022/02/15 11:00:57;;;;;;;38.60;25.67;;;;;;;9.20;68.53;95267.69;5056135;28;20449;-85
2022/02/15 11:03:29;;;;;;;40.67;25.40;;;;;;;9.27;68.73;95261.09;5055823;28;20963;-84
2022/02/15 11:05:57;;;;;;;40.93;23.30;;;;;;;9.33;67.80;95254.56;5056883;28;20474;-84
2022/02/15 11:08:24;;;;;;;47.23;28.53;;;;;;;9.50;66.80;95250.66;5055705;28;20464;-84
2022/02/15 11:11:01;;;;;;;33.23;22.43;;;;;;;9.64;67.08;95253.09;5055920;28;20454;-85
2022/02/15 11:13:29;;;;;;;41.00;24.60;;;;;;;9.72;66.04;95247.28;5056014;28;20451;-85
2022/02/15 11:15:57;;;;;;;34.80;22.67;;;;;;;9.74;64.40;95245.38;5057092;28;20452;-85
2022/02/15 11:18:34;;;;;;;18.93;15.27;;;;;;;9.60;64.14;95244.66;5056758;28;20458;-86
2022/02/15 11:21:03;;;;;;;28.60;20.50;;;;;;;9.57;63.18;95237.03;5056909;28;20487;-87
2022/02/15 11:23:32;;;;;;;30.03;17.23;;;;;;;9.53;63.47;95232.94;5056430;28;20426;-85
2022/02/15 11:26:08;;;;;;;29.27;16.83;;;;;;;9.59;63.14;95229.03;5055898;28;20483;-85
2022/02/15 11:28:47;;;;;;;21.50;15.10;;;;;;;9.41;64.23;95230.41;5055745;28;20968;-86
2022/02/15 11:31:25;;;;;;;31.00;17.13;;;;;;;9.25;63.96;95210.63;5056101;28;20507;-83
2022/02/15 11:33:55;;;;;;;22.07;14.97;;;;;;;9.46;64.33;95220.41;5055420;28;20519;-86
2022/02/15 11:36:23;;;;;;;28.43;14.23;;;;;;;9.56;64.93;95216.19;5055679;28;20533;-86
2022/02/15 11:38:56;;;;;;;24.87;15.03;;;;;;;9.62;64.38;95220.94;5055109;28;20446;-86
2022/02/15 11:41:24;;;;;;;30.50;17.07;;;;;;;9.68;64.43;95211.78;5056143;28;20500;-85
2022/02/15 11:43:55;;;;;;;23.20;16.17;;;;;;;9.80;65.21;95216.06;5054933;28;20971;-85
2022/02/15 11:46:29;;;;;;;22.13;14.87;;;;;;;9.84;63.40;95207.88;5054583;28;20999;-85
2022/02/15 11:49:09;;;;;;;20.73;14.53;;;;;;;9.76;64.40;95212.03;5055405;28;20425;-86
2022/02/15 11:51:37;;;;;;;17.93;13.37;;;;;;;9.83;63.49;95206.22;5055208;28;20441;-85
2022/02/15 11:54:05;;;;;;;23.50;15.40;;;;;;;9.91;63.22;95198.59;5055133;28;21017;-85
2022/02/15 11:56:33;;;;;;;26.47;15.90;;;;;;;9.87;63.15;95202.41;5055076;28;20560;-85